Terminal Aerodrome Forecast
Issued by NWS

Home | Current Version | Previous Version | Text Only | Print | Product List | Glossary Off
Versions: 1 2 3 4 5 6 7 8 9 10 11 12 13 14 15 16
000 FTUS41 KBOX 270541 AAA TAFACK TAF AMD KACK 270541Z 2706/2806 19012KT P6SM BKN090 FM271000 19014G21KT P6SM VCSH OVC035 FM271100 19015G22KT P6SM VCSH OVC030 FM271200 19015G23KT 5SM SHRA BR OVC030 FM271400 20018G25KT 2SM SHRA BR OVC010 FM271800 23017G25KT 2SM -SHRA BR OVC008 FM280000 23007KT 2SM -SHRA BR OVC003 FM280300 VRB03KT 3SM -SHRA BR OVC015=

USA.gov is the U.S. government's official web portal to all federal, state and local government web resources and services.